Time;durP1;ratioP1;P1;durP2;ratioP2;P2;SDS_P1;SDS_P2;PMS_P1;PMS_P2;Temp;Humidity;BMP_temperature;BMP_pressure;BME280_temperature;BME280_humidity;BME280_pressure;Samples;Min_cycle;Max_cycle;Signal;HPM_P1;HPM_P2
2021/06/04 00:00:38;;;;;;;1999.90;999.90;;;;;;;14.75;76.44;96348.56;5072176;28;20203;-59
2021/06/04 00:03:08;;;;;;;1999.90;999.90;;;;;;;14.39;74.55;96348.63;5072274;28;20200;-60
2021/06/04 00:05:37;;;;;;;1999.90;999.90;;;;;;;14.34;74.83;96347.94;5072438;28;20254;-60
2021/06/04 00:08:05;;;;;;;1999.90;999.90;;;;;;;14.28;75.10;96347.25;5072250;28;20284;-60
2021/06/04 00:10:35;;;;;;;1999.90;999.90;;;;;;;14.19;76.16;96349.03;5072003;28;20203;-61
2021/06/04 00:13:16;;;;;;;1999.90;999.90;;;;;;;14.24;74.83;96348.94;5071829;28;20315;-59
2021/06/04 00:15:45;;;;;;;1999.90;999.90;;;;;;;14.19;74.59;96349.81;5071808;28;20192;-59
2021/06/04 00:18:13;;;;;;;1999.90;999.90;;;;;;;14.25;74.35;96347.84;5071658;28;20193;-61
2021/06/04 00:20:40;;;;;;;1999.90;999.90;;;;;;;14.17;75.10;96353.78;5071618;28;20583;-60
2021/06/04 00:23:08;;;;;;;1999.90;999.90;;;;;;;14.10;75.78;96346.34;5071714;28;20200;-60
2021/06/04 00:25:34;;;;;;;1999.90;999.90;;;;;;;14.13;76.67;96339.75;5071381;28;20277;-60
2021/06/04 00:28:01;;;;;;;1999.90;999.90;;;;;;;14.08;77.14;96339.88;5072107;28;20589;-60
2021/06/04 00:30:28;;;;;;;1999.90;999.90;;;;;;;14.04;77.35;96341.53;5071833;28;20671;-60
2021/06/04 00:32:57;;;;;;;1999.90;999.90;;;;;;;14.11;77.75;96341.88;5071453;28;20224;-61
2021/06/04 00:35:25;;;;;;;1999.90;999.90;;;;;;;14.16;78.30;96339.16;5071435;28;20200;-60
2021/06/04 00:37:52;;;;;;;1999.90;999.90;;;;;;;14.19;78.48;96343.81;5071433;28;20192;-60
2021/06/04 00:40:23;;;;;;;1999.90;999.90;;;;;;;14.19;78.88;96338.59;5071343;28;20271;-62
2021/06/04 00:42:50;;;;;;;1999.90;999.90;;;;;;;14.18;79.44;96337.03;5071114;28;20703;-60
2021/06/04 00:45:21;;;;;;;1999.90;999.90;;;;;;;14.18;79.91;96332.56;5071082;28;20741;-60
2021/06/04 00:47:48;;;;;;;1999.90;999.90;;;;;;;14.16;80.16;96333.94;5071581;28;20200;-60
2021/06/04 00:50:21;;;;;;;1999.90;999.90;;;;;;;14.14;80.73;96336.06;5071443;28;20275;-60
2021/06/04 00:52:49;;;;;;;1999.90;999.90;;;;;;;14.04;82.29;96331.84;5070972;28;20250;-60
2021/06/04 00:55:19;;;;;;;1999.90;999.90;;;;;;;14.02;82.08;96330.56;5070768;28;20730;-60
2021/06/04 00:57:46;;;;;;;1999.90;999.90;;;;;;;14.12;79.89;96338.19;5070974;28;20196;-59
2021/06/04 01:00:22;;;;;;;1999.90;999.90;;;;;;;14.07;78.21;96335.69;5070803;28;20241;-60
2021/06/04 01:02:53;;;;;;;1999.90;999.90;;;;;;;14.01;78.65;96331.63;5071450;28;20232;-60
2021/06/04 01:05:27;;;;;;;1999.90;999.90;;;;;;;14.01;77.52;96334.25;5070941;28;20550;-60
2021/06/04 01:08:17;;;;;;;1999.90;999.90;;;;;;;14.00;77.38;96332.69;5071005;28;20192;-60
2021/06/04 01:11:02;;;;;;;1999.90;999.90;;;;;;;13.93;78.12;96334.97;5070670;28;20235;-60
2021/06/04 01:13:32;;;;;;;1999.90;999.90;;;;;;;13.89;78.20;96334.78;5070638;28;20227;-60
2021/06/04 01:16:07;;;;;;;1999.90;999.90;;;;;;;13.91;77.88;96337.06;5070612;28;20197;-59
2021/06/04 01:18:43;;;;;;;1999.90;999.90;;;;;;;13.88;78.52;96341.06;5070834;28;20196;-60
2021/06/04 01:21:20;;;;;;;1999.90;999.90;;;;;;;13.87;78.72;96341.34;5070516;28;20193;-60
2021/06/04 01:23:56;;;;;;;1999.90;999.90;;;;;;;13.86;79.31;96339.78;5070508;28;20196;-59
2021/06/04 01:26:32;;;;;;;1999.90;999.90;;;;;;;13.93;78.52;96342.78;5070625;28;20223;-61
2021/06/04 01:29:03;;;;;;;1999.90;999.90;;;;;;;13.82;78.96;96339.63;5070599;28;20200;-60
2021/06/04 01:31:37;;;;;;;1999.90;999.90;;;;;;;13.80;78.88;96341.72;5070557;28;20196;-59
2021/06/04 01:34:08;;;;;;;1999.90;999.90;;;;;;;13.86;77.75;96342.41;5070323;28;20622;-60
2021/06/04 01:36:40;;;;;;;1999.90;999.90;;;;;;;13.76;78.26;96343.38;5070426;28;20200;-59
2021/06/04 01:39:11;;;;;;;1999.90;999.90;;;;;;;13.60;77.51;96345.53;5070293;28;20196;-60
2021/06/04 01:41:40;;;;;;;1999.90;999.90;;;;;;;13.64;77.59;96348.34;5070673;28;20281;-60
2021/06/04 01:44:16;;;;;;;1999.90;999.90;;;;;;;13.65;78.27;96340.19;5070524;28;20196;-60
2021/06/04 01:46:48;;;;;;;1999.90;999.90;;;;;;;13.67;78.60;96340.69;5070361;28;20202;-59
2021/06/04 01:49:20;;;;;;;1999.90;999.90;;;;;;;13.69;78.27;96343.03;5070277;28;20594;-60
2021/06/04 01:51:50;;;;;;;1999.90;999.90;;;;;;;13.70;77.59;96347.94;5070132;28;20239;-60
2021/06/04 01:54:21;;;;;;;1999.90;999.90;;;;;;;13.59;77.04;96346.59;5069978;28;20754;-59
2021/06/04 01:56:52;;;;;;;1999.90;999.90;;;;;;;13.41;76.16;96349.28;5070091;28;20283;-60
2021/06/04 01:59:23;;;;;;;1999.90;999.90;;;;;;;13.44;76.35;96349.50;5070033;28;20196;-60
2021/06/04 02:01:51;;;;;;;1999.90;999.90;;;;;;;13.42;77.38;96350.84;5070119;28;20204;-60
2021/06/04 02:04:32;;;;;;;1999.90;999.90;;;;;;;13.51;77.03;96352.50;5069958;28;20225;-60
2021/06/04 02:07:00;;;;;;;1999.90;999.90;;;;;;;13.49;77.11;96352.03;5070253;28;20200;-60
2021/06/04 02:09:29;;;;;;;1999.90;999.90;;;;;;;13.46;77.62;96352.59;5069739;28;20585;-60
2021/06/04 02:11:57;;;;;;;1999.90;999.90;;;;;;;13.44;77.02;96354.72;5070063;28;20291;-60
2021/06/04 02:14:30;;;;;;;1999.90;999.90;;;;;;;13.36;76.27;96344.94;5069880;28;20259;-59
2021/06/04 02:17:12;;;;;;;1999.90;999.90;;;;;;;13.40;76.55;96351.13;5069914;28;20192;-60
2021/06/04 02:19:50;;;;;;;1999.90;999.90;;;;;;;13.36;76.81;96353.56;5069891;28;20258;-60
2021/06/04 02:22:22;;;;;;;1999.90;999.90;;;;;;;13.33;76.78;96353.38;5069985;28;20200;-60
2021/06/04 02:24:58;;;;;;;1999.90;999.90;;;;;;;13.26;77.48;96347.75;5069358;28;20778;-60
2021/06/04 02:27:30;;;;;;;1999.90;999.90;;;;;;;13.27;78.14;96359.72;5069670;28;20273;-61
2021/06/04 02:30:06;;;;;;;1999.90;999.90;;;;;;;13.31;78.45;96358.88;5072725;28;20250;-59
2021/06/04 02:32:40;;;;;;;1999.90;999.90;;;;;;;13.33;78.43;96358.59;5073746;28;20196;-59
2021/06/04 02:35:16;;;;;;;1999.90;999.90;;;;;;;13.30;79.12;96361.75;5073658;28;20204;-60
2021/06/04 02:37:46;;;;;;;1999.90;999.90;;;;;;;13.31;79.05;96360.69;5073636;28;20277;-60
2021/06/04 02:40:17;;;;;;;1999.90;999.90;;;;;;;13.29;78.78;96358.41;5074032;28;20196;-61
2021/06/04 02:42:50;;;;;;;1999.90;999.90;;;;;;;13.35;78.70;96367.66;5073484;28;20659;-60
2021/06/04 02:45:21;;;;;;;1999.90;999.90;;;;;;;13.29;78.33;96362.84;5073394;28;20705;-58
2021/06/04 02:47:51;;;;;;;1999.90;999.90;;;;;;;13.23;78.93;96364.75;5073189;28;20560;-60
2021/06/04 02:50:25;;;;;;;1999.90;999.90;;;;;;;13.11;79.14;96369.66;5073264;28;20199;-61
2021/06/04 02:52:52;;;;;;;1999.90;999.90;;;;;;;13.11;79.28;96363.63;5073641;28;20731;-60
2021/06/04 02:55:24;;;;;;;1999.90;999.90;;;;;;;13.11;79.52;96374.06;5073262;28;20192;-60
2021/06/04 02:57:52;;;;;;;1999.90;999.90;;;;;;;13.15;78.86;96373.25;5073204;28;20287;-60
2021/06/04 03:00:26;;;;;;;1999.90;999.90;;;;;;;13.18;78.79;96377.13;5073016;28;20279;-60
2021/06/04 03:02:53;;;;;;;1999.90;999.90;;;;;;;13.09;78.47;96378.81;5073388;28;20295;-60
2021/06/04 03:05:29;;;;;;;1999.90;999.90;;;;;;;13.15;78.89;96377.72;5073279;28;20189;-60
2021/06/04 03:07:56;;;;;;;1999.90;999.90;;;;;;;13.20;78.50;96380.25;5073615;28;20193;-62
2021/06/04 03:10:28;;;;;;;1999.90;999.90;;;;;;;13.14;77.30;96376.16;5073028;28;20201;-60
2021/06/04 03:12:57;;;;;;;1999.90;999.90;;;;;;;13.20;76.71;96369.78;5072886;28;20232;-60
2021/06/04 03:15:28;;;;;;;1999.90;999.90;;;;;;;13.16;76.38;96372.19;5073027;28;20291;-61
2021/06/04 03:17:56;;;;;;;1999.90;999.90;;;;;;;13.18;77.20;96382.34;5072895;28;20192;-60
2021/06/04 03:20:27;;;;;;;1999.90;999.90;;;;;;;13.20;77.86;96380.25;5072903;28;20207;-60
2021/06/04 03:22:54;;;;;;;1999.90;999.90;;;;;;;13.15;77.37;96385.53;5072860;28;20574;-60
2021/06/04 03:25:24;;;;;;;1999.90;999.90;;;;;;;13.22;78.14;96384.09;5072343;28;20650;-60
2021/06/04 03:27:53;;;;;;;1999.90;999.90;;;;;;;13.16;77.57;96390.44;5072969;28;20212;-61
2021/06/04 03:30:24;;;;;;;1999.90;999.90;;;;;;;13.20;77.16;96390.69;5072542;28;20681;-61
2021/06/04 03:32:51;;;;;;;1999.90;999.90;;;;;;;12.94;77.68;96393.69;5072540;28;20192;-60
2021/06/04 03:35:18;;;;;;;1999.90;999.90;;;;;;;12.93;78.22;96394.72;5072349;28;20576;-60
2021/06/04 03:37:45;;;;;;;1999.90;999.90;;;;;;;13.01;78.73;96400.34;5072384;28;20249;-60
2021/06/04 03:40:19;;;;;;;1999.90;999.90;;;;;;;12.99;79.12;96397.25;5071974;28;20193;-60
2021/06/04 03:42:46;;;;;;;1999.90;999.90;;;;;;;12.99;78.51;96405.88;5072381;28;20663;-62
2021/06/04 03:45:18;;;;;;;1999.90;999.90;;;;;;;12.99;78.87;96399.88;5072587;28;20722;-60
2021/06/04 03:47:47;;;;;;;1999.90;999.90;;;;;;;12.84;78.99;96399.06;5072568;28;20203;-59
2021/06/04 03:50:15;;;;;;;1999.90;999.90;;;;;;;12.87;78.56;96403.69;5072174;28;20236;-61
2021/06/04 03:52:43;;;;;;;1999.90;999.90;;;;;;;12.89;79.17;96406.81;5072442;28;20217;-60
2021/06/04 03:55:11;;;;;;;1999.90;999.90;;;;;;;12.83;78.42;96409.75;5072586;28;20237;-62
2021/06/04 03:57:39;;;;;;;1999.90;999.90;;;;;;;12.91;78.35;96411.72;5072166;28;20196;-61
2021/06/04 04:00:09;;;;;;;1999.90;999.90;;;;;;;12.91;77.93;96407.28;5072033;28;20251;-61
2021/06/04 04:02:35;;;;;;;1999.90;999.90;;;;;;;12.99;77.45;96410.31;5071958;28;20632;-59
2021/06/04 04:05:05;;;;;;;1999.90;999.90;;;;;;;13.00;76.95;96407.38;5071784;28;20192;-61
2021/06/04 04:07:32;;;;;;;1999.90;999.90;;;;;;;13.02;76.82;96415.72;5071817;28;20330;-60
2021/06/04 04:09:59;;;;;;;1999.90;999.90;;;;;;;12.98;76.79;96419.19;5072047;28;20218;-61
2021/06/04 04:12:26;;;;;;;1999.90;999.90;;;;;;;12.99;77.43;96415.53;5071917;28;20219;-60
2021/06/04 04:14:53;;;;;;;1999.90;999.90;;;;;;;13.05;76.07;96424.81;5071700;28;20231;-61
2021/06/04 04:17:21;;;;;;;1999.90;999.90;;;;;;;13.05;76.36;96425.56;5071761;28;20246;-61
2021/06/04 04:19:48;;;;;;;1999.90;999.90;;;;;;;13.19;76.55;96428.28;5071678;28;20200;-60
2021/06/04 04:22:17;;;;;;;1999.90;999.90;;;;;;;13.18;74.62;96426.72;5071915;28;20238;-59
2021/06/04 04:24:44;;;;;;;1999.90;999.90;;;;;;;13.26;74.98;96431.28;5071370;28;20533;-59
2021/06/04 04:27:12;;;;;;;1999.90;999.90;;;;;;;13.39;75.18;96433.16;5071472;28;20217;-57
2021/06/04 04:29:38;;;;;;;1999.90;999.90;;;;;;;13.46;74.79;96440.59;5071471;28;20284;-58
2021/06/04 04:32:12;;;;;;;1999.90;999.90;;;;;;;13.43;73.72;96439.34;5071349;28;20287;-59
2021/06/04 04:34:39;;;;;;;1999.90;999.90;;;;;;;13.43;73.50;96446.41;5071350;28;20307;-59
2021/06/04 04:37:06;;;;;;;1999.90;999.90;;;;;;;13.55;74.06;96441.50;5070949;28;20277;-59
2021/06/04 04:39:37;;;;;;;1999.90;999.90;;;;;;;13.53;73.13;96441.78;5071113;28;20212;-59
2021/06/04 04:42:06;;;;;;;1999.90;999.90;;;;;;;13.51;73.06;96438.66;5071257;28;20283;-59
2021/06/04 04:44:35;;;;;;;1999.90;999.90;;;;;;;13.59;73.40;96440.63;5071260;28;20200;-59
2021/06/04 04:47:04;;;;;;;1999.90;999.90;;;;;;;13.61;73.21;96442.94;5071207;28;20195;-60
2021/06/04 04:49:31;;;;;;;1999.90;999.90;;;;;;;13.59;73.34;96440.63;5071220;28;20269;-59
2021/06/04 04:51:58;;;;;;;1999.90;999.90;;;;;;;13.60;72.46;96441.41;5070327;28;20203;-60
2021/06/04 04:54:29;;;;;;;1999.90;999.90;;;;;;;13.65;71.92;96442.06;5070989;28;20236;-59
2021/06/04 04:56:57;;;;;;;1999.90;999.90;;;;;;;13.46;73.34;96443.97;5070856;28;20287;-57
2021/06/04 04:59:24;;;;;;;1999.90;999.90;;;;;;;13.57;73.13;96453.19;5071082;28;20573;-59
2021/06/04 05:01:51;;;;;;;1999.90;999.90;;;;;;;13.66;73.09;96442.84;5070733;28;20196;-59
2021/06/04 05:04:18;;;;;;;1999.90;999.90;;;;;;;13.78;73.32;96443.94;5070971;28;20203;-59
2021/06/04 05:06:45;;;;;;;1999.90;999.90;;;;;;;13.83;73.25;96444.91;5070652;28;20717;-59
2021/06/04 05:09:12;;;;;;;1999.90;999.90;;;;;;;13.91;71.81;96452.84;5070861;28;20193;-60
2021/06/04 05:11:39;;;;;;;1999.90;999.90;;;;;;;14.06;72.19;96451.75;5070596;28;20747;-59
2021/06/04 05:14:07;;;;;;;1999.90;999.90;;;;;;;14.18;71.07;96454.69;5070682;28;20234;-59
2021/06/04 05:16:34;;;;;;;1999.90;999.90;;;;;;;14.01;71.59;96454.47;5070366;28;20196;-60
2021/06/04 05:19:01;;;;;;;1999.90;999.90;;;;;;;14.10;71.07;96455.34;5070659;28;20201;-58
2021/06/04 05:21:28;;;;;;;1999.90;999.90;;;;;;;14.07;71.56;96461.94;5070824;28;20620;-60
2021/06/04 05:23:55;;;;;;;1999.90;999.90;;;;;;;14.16;71.55;96459.41;5070417;28;20283;-61
2021/06/04 05:26:23;;;;;;;1999.90;999.90;;;;;;;14.21;70.98;96464.53;5069952;28;20235;-60
2021/06/04 05:28:50;;;;;;;1999.90;999.90;;;;;;;14.30;70.86;96464.63;5070277;28;20591;-59
2021/06/04 05:31:19;;;;;;;1999.90;999.90;;;;;;;14.43;69.57;96469.88;5070182;28;20231;-60
2021/06/04 05:33:48;;;;;;;1999.90;999.90;;;;;;;14.39;68.92;96471.53;5070216;28;20228;-61
2021/06/04 05:36:18;;;;;;;1999.90;999.90;;;;;;;14.44;68.76;96471.44;5070289;28;20337;-60
2021/06/04 05:38:46;;;;;;;1999.90;999.90;;;;;;;14.61;68.53;96466.34;5070477;28;20287;-61
2021/06/04 05:41:13;;;;;;;1999.90;999.90;;;;;;;14.51;68.40;96461.31;5070664;28;20188;-58
2021/06/04 05:43:42;;;;;;;1999.90;999.90;;;;;;;14.55;67.20;96466.75;5070313;28;20663;-60
2021/06/04 05:46:12;;;;;;;1999.90;999.90;;;;;;;14.61;68.43;96474.19;5070180;28;20189;-60
2021/06/04 05:48:40;;;;;;;1999.90;999.90;;;;;;;14.87;66.78;96478.88;5070264;28;20275;-58
2021/06/04 05:51:10;;;;;;;1999.90;999.90;;;;;;;15.11;67.07;96484.59;5070296;28;20200;-59
2021/06/04 05:53:40;;;;;;;1999.90;999.90;;;;;;;15.17;66.27;96482.66;5070700;28;20224;-58
2021/06/04 05:56:08;;;;;;;1999.90;999.90;;;;;;;15.23;67.00;96490.09;5070404;28;20201;-59
2021/06/04 05:58:36;;;;;;;1999.90;999.90;;;;;;;15.32;66.53;96490.16;5070228;28;20275;-61
2021/06/04 06:01:06;;;;;;;1999.90;999.90;;;;;;;15.51;67.78;96482.88;5070249;28;20698;-59
2021/06/04 06:03:35;;;;;;;1999.90;999.90;;;;;;;15.65;69.49;96491.44;5070270;28;20222;-60
2021/06/04 06:06:04;;;;;;;1999.90;999.90;;;;;;;15.63;70.51;96484.97;5069886;28;20196;-59
2021/06/04 06:08:31;;;;;;;1999.90;999.90;;;;;;;15.71;71.36;96486.84;5070318;28;20262;-58
2021/06/04 06:10:58;;;;;;;1999.90;999.90;;;;;;;15.72;72.41;96488.41;5069889;28;20752;-59
2021/06/04 06:13:25;;;;;;;1999.90;999.90;;;;;;;15.85;71.96;96487.53;5069804;28;20230;-60
2021/06/04 06:15:53;;;;;;;1999.90;999.90;;;;;;;15.89;72.20;96493.72;5069967;28;20197;-59
2021/06/04 06:18:20;;;;;;;1999.90;999.90;;;;;;;16.08;72.22;96496.91;5070060;28;20196;-60
2021/06/04 06:20:46;;;;;;;1999.90;999.90;;;;;;;16.12;71.67;96497.84;5070279;28;20292;-61
2021/06/04 06:23:17;;;;;;;1999.90;999.90;;;;;;;16.08;72.82;96496.91;5070159;28;20238;-59
2021/06/04 06:25:47;;;;;;;1999.90;999.90;;;;;;;16.21;72.44;96488.13;5069772;28;20232;-59
2021/06/04 06:28:16;;;;;;;1999.90;999.90;;;;;;;16.40;72.56;96492.34;5069732;28;20258;-61
2021/06/04 06:30:45;;;;;;;1999.90;999.90;;;;;;;16.47;71.77;96492.69;5069622;28;20684;-60
2021/06/04 06:33:12;;;;;;;1999.90;999.90;;;;;;;16.52;71.97;96495.94;5069647;28;20203;-59
2021/06/04 06:35:42;;;;;;;1999.90;999.90;;;;;;;16.60;71.81;96487.31;5069710;28;20192;-60
2021/06/04 06:38:09;;;;;;;1999.90;999.90;;;;;;;16.72;70.84;96479.63;5070097;28;20201;-59
2021/06/04 06:40:39;;;;;;;1999.90;999.90;;;;;;;16.59;71.67;96477.13;5069952;28;20291;-59
2021/06/04 06:43:07;;;;;;;1999.90;999.90;;;;;;;16.69;71.92;96474.19;5069512;28;20695;-61
2021/06/04 06:45:34;;;;;;;1999.90;999.90;;;;;;;16.72;71.50;96473.59;5069609;28;20261;-59
2021/06/04 06:48:01;;;;;;;1999.90;999.90;;;;;;;16.86;69.94;96476.06;5069587;28;20330;-59
2021/06/04 06:50:30;;;;;;;1999.90;999.90;;;;;;;17.25;67.15;96477.75;5069656;28;20275;-59
2021/06/04 06:52:57;;;;;;;1999.90;999.90;;;;;;;17.46;67.66;96476.03;5069472;28;20647;-60
2021/06/04 06:55:24;;;;;;;1999.90;999.90;;;;;;;17.29;67.48;96471.56;5059943;28;20274;-60
2021/06/04 06:57:52;;;;;;;1999.90;999.90;;;;;;;17.56;66.78;96468.56;5069025;28;20199;-60
2021/06/04 07:00:24;;;;;;;1999.90;999.90;;;;;;;17.58;63.78;96473.53;5068546;28;20628;-60
2021/06/04 07:02:51;;;;;;;1999.90;999.90;;;;;;;17.81;64.52;96471.47;5068791;28;20279;-59
2021/06/04 07:05:19;;;;;;;1999.90;999.90;;;;;;;18.01;65.13;96471.53;5069210;28;20623;-60
2021/06/04 07:07:45;;;;;;;1999.90;999.90;;;;;;;18.02;64.04;96465.19;5068332;28;20207;-60
2021/06/04 07:10:16;;;;;;;1999.90;999.90;;;;;;;17.87;66.26;96467.59;5067347;28;20192;-60
2021/06/04 07:12:43;;;;;;;1999.90;999.90;;;;;;;18.10;64.99;96465.47;5068164;28;20280;-59
2021/06/04 07:15:15;;;;;;;1999.90;999.90;;;;;;;18.22;62.21;96461.06;5070695;28;20225;-58
2021/06/04 07:17:43;;;;;;;1999.90;999.90;;;;;;;18.41;61.19;96465.91;5073015;28;20235;-60
2021/06/04 07:20:15;;;;;;;1999.90;999.90;;;;;;;18.60;59.59;96466.28;5072918;28;20271;-60
2021/06/04 07:22:42;;;;;;;1999.90;999.90;;;;;;;18.89;59.87;96463.59;5072931;28;20195;-60
2021/06/04 07:25:14;;;;;;;1999.90;999.90;;;;;;;19.22;58.35;96465.50;5072828;28;20642;-59
2021/06/04 07:27:41;;;;;;;1999.90;999.90;;;;;;;19.59;61.09;96459.25;5073163;28;20213;-59
2021/06/04 07:30:11;;;;;;;1999.90;999.90;;;;;;;19.93;61.61;96462.56;5072932;28;20193;-60
2021/06/04 07:32:40;;;;;;;1999.90;999.90;;;;;;;20.36;55.96;96457.56;5072499;28;20250;-59
2021/06/04 07:35:09;;;;;;;1999.90;999.90;;;;;;;20.60;56.08;96462.81;5072362;28;20224;-60
2021/06/04 07:37:36;;;;;;;1999.90;999.90;;;;;;;20.63;51.64;96459.47;5072435;28;20742;-59
2021/06/04 07:40:07;;;;;;;1999.90;999.90;;;;;;;20.73;52.50;96460.88;5072882;28;20210;-60
2021/06/04 07:42:36;;;;;;;1999.90;999.90;;;;;;;20.76;49.95;96456.81;5072415;28;20201;-59
2021/06/04 07:45:04;;;;;;;1999.90;999.90;;;;;;;20.70;51.37;96458.16;5072344;28;20192;-59
2021/06/04 07:47:31;;;;;;;1999.90;999.90;;;;;;;20.78;51.41;96458.00;5072339;28;20694;-59
2021/06/04 07:50:00;;;;;;;1999.90;999.90;;;;;;;20.95;51.26;96465.69;5072308;28;20326;-59
2021/06/04 07:52:27;;;;;;;1999.90;999.90;;;;;;;21.19;49.38;96459.56;5072617;28;20224;-60
2021/06/04 07:54:58;;;;;;;1999.90;999.90;;;;;;;20.97;49.86;96454.78;5072340;28;20231;-60
2021/06/04 07:57:25;;;;;;;1999.90;999.90;;;;;;;21.33;48.22;96465.22;5072957;28;20262;-60
2021/06/04 07:59:52;;;;;;;1999.90;999.90;;;;;;;21.51;48.16;96464.91;5072164;28;20193;-59
2021/06/04 08:02:19;;;;;;;1999.90;999.90;;;;;;;21.89;46.00;96459.81;5072186;28;20220;-59
2021/06/04 08:04:46;;;;;;;1999.90;999.90;;;;;;;21.98;46.20;96464.97;5071986;28;20725;-60
2021/06/04 08:07:15;;;;;;;1999.90;999.90;;;;;;;22.04;44.73;96469.66;5072458;28;20228;-61
2021/06/04 08:09:44;;;;;;;1999.90;999.90;;;;;;;21.98;43.41;96464.97;5071965;28;20668;-61
2021/06/04 08:12:15;;;;;;;1999.90;999.90;;;;;;;22.07;44.68;96463.66;5072268;28;20192;-60
2021/06/04 08:14:42;;;;;;;1999.90;999.90;;;;;;;22.44;44.68;96469.44;5072255;28;20231;-60
2021/06/04 08:17:09;;;;;;;1999.90;999.90;;;;;;;22.65;46.28;96461.94;5071761;28;20197;-60
2021/06/04 08:19:37;;;;;;;1999.90;999.90;;;;;;;22.67;42.03;96466.88;5071793;28;20653;-59
2021/06/04 08:22:07;;;;;;;1999.90;999.90;;;;;;;23.12;44.39;96467.09;5072199;28;20638;-59
2021/06/04 08:24:37;;;;;;;1999.90;999.90;;;;;;;22.77;43.32;96461.06;5071826;28;20236;-60
2021/06/04 08:27:06;;;;;;;1999.90;999.90;;;;;;;23.28;43.46;96460.94;5070364;28;20224;-60
2021/06/04 08:29:34;;;;;;;1999.90;999.90;;;;;;;23.54;43.65;96461.84;5071621;28;20648;-61
2021/06/04 08:32:03;;;;;;;1999.90;999.90;;;;;;;23.16;40.01;96461.88;5071912;28;20208;-60
2021/06/04 08:34:31;;;;;;;1999.90;999.90;;;;;;;23.33;39.29;96461.41;5071572;28;20699;-59
2021/06/04 08:36:59;;;;;;;1999.90;999.90;;;;;;;23.33;39.44;96460.66;5071526;28;20634;-60
2021/06/04 08:39:30;;;;;;;1999.90;999.90;;;;;;;23.33;37.67;96456.09;5071328;28;20200;-61
2021/06/04 08:42:08;;;;;;;1999.90;999.90;;;;;;;23.49;37.21;96453.38;5071197;28;20655;-61
2021/06/04 08:44:43;;;;;;;1999.90;999.90;;;;;;;23.51;38.79;96454.56;5071383;28;20200;-60
2021/06/04 08:47:16;;;;;;;1999.90;999.90;;;;;;;23.87;36.35;96460.47;5071510;28;20559;-59
2021/06/04 08:50:01;;;;;;;1999.90;999.90;;;;;;;23.81;35.79;96464.56;5071198;28;20231;-60
2021/06/04 08:52:34;;;;;;;1999.90;999.90;;;;;;;23.77;35.92;96458.41;5071034;28;20207;-60
2021/06/04 08:55:13;;;;;;;1999.90;999.90;;;;;;;24.00;37.26;96459.19;5070959;28;20611;-58
2021/06/04 08:57:50;;;;;;;1999.90;999.90;;;;;;;24.14;36.60;96459.41;5071061;28;20678;-60
2021/06/04 09:00:21;;;;;;;1999.90;999.90;;;;;;;23.79;36.17;96456.94;5070873;28;20556;-61
2021/06/04 09:02:51;;;;;;;1999.90;999.90;;;;;;;23.93;37.64;96462.47;5070654;28;20698;-58
2021/06/04 09:05:23;;;;;;;1999.90;999.90;;;;;;;24.05;36.10;96463.41;5070776;28;20188;-60
2021/06/04 09:07:52;;;;;;;1999.90;999.90;;;;;;;23.84;36.23;96463.84;5071103;28;20212;-59
2021/06/04 09:10:29;;;;;;;1999.90;999.90;;;;;;;24.08;36.13;96462.69;5070658;28;20192;-60
2021/06/04 09:13:07;;;;;;;1999.90;999.90;;;;;;;24.23;35.53;96453.84;5070656;28;20200;-60
2021/06/04 09:15:37;;;;;;;1999.90;999.90;;;;;;;23.85;36.98;96457.41;5070558;28;20301;-59
2021/06/04 09:18:08;;;;;;;1999.90;999.90;;;;;;;23.59;37.21;96463.44;5070696;28;20687;-59
2021/06/04 09:20:43;;;;;;;1999.90;999.90;;;;;;;23.45;38.71;96457.88;5070740;28;20200;-59
2021/06/04 09:23:13;;;;;;;1999.90;999.90;;;;;;;23.49;36.76;96453.38;5070743;28;20269;-60
2021/06/04 09:25:42;;;;;;;1999.90;999.90;;;;;;;23.41;38.02;96457.03;5070394;28;20236;-60
2021/06/04 09:28:24;;;;;;;1999.90;999.90;;;;;;;23.48;38.34;96451.84;5071003;28;20216;-60
2021/06/04 09:30:54;;;;;;;1999.90;999.90;;;;;;;23.29;38.34;96454.50;5070649;28;20679;-60
2021/06/04 09:33:24;;;;;;;1999.90;999.90;;;;;;;23.56;38.32;96450.88;5070344;28;20208;-60
2021/06/04 09:36:00;;;;;;;1999.90;999.90;;;;;;;23.82;39.46;96450.91;5070586;28;20640;-59
2021/06/04 09:38:31;;;;;;;1999.90;999.90;;;;;;;24.16;38.52;96453.72;5069998;28;20291;-61
2021/06/04 09:41:11;;;;;;;1999.90;999.90;;;;;;;24.15;38.45;96452.19;5070443;28;20641;-61
2021/06/04 09:43:39;;;;;;;1999.90;999.90;;;;;;;24.18;37.96;96449.63;5070130;28;20201;-61
2021/06/04 09:46:10;;;;;;;1999.90;999.90;;;;;;;24.35;36.66;96456.31;5070115;28;20730;-59
2021/06/04 09:48:41;;;;;;;1999.90;999.90;;;;;;;24.20;38.08;96449.25;5070389;28;20674;-62
2021/06/04 09:51:13;;;;;;;1999.90;999.90;;;;;;;24.29;36.97;96441.81;5070466;28;20699;-60
2021/06/04 09:53:41;;;;;;;1999.90;999.90;;;;;;;24.24;37.59;96444.75;5070120;28;20813;-60
2021/06/04 09:56:30;;;;;;;1999.90;999.90;;;;;;;24.16;37.50;96443.09;5070062;28;20201;-61
2021/06/04 09:59:01;;;;;;;1999.90;999.90;;;;;;;23.76;37.17;96438.31;5067256;28;20671;-62
2021/06/04 10:01:30;;;;;;;1999.90;999.90;;;;;;;23.33;37.49;96434.88;5070153;28;20197;-60
2021/06/04 10:04:00;;;;;;;1999.90;999.90;;;;;;;23.51;38.45;96432.59;5070057;28;20594;-60
2021/06/04 10:06:34;;;;;;;1999.90;999.90;;;;;;;23.62;37.72;96430.09;5070186;28;20546;-61
2021/06/04 10:09:08;;;;;;;1999.90;999.90;;;;;;;23.69;37.99;96435.53;5070370;28;20220;-59
2021/06/04 10:11:50;;;;;;;1999.90;999.90;;;;;;;23.56;37.40;96429.63;5070218;28;20298;-58
2021/06/04 10:14:27;;;;;;;1999.90;999.90;;;;;;;23.68;37.84;96428.69;5070058;28;20228;-60
2021/06/04 10:17:14;;;;;;;1999.90;999.90;;;;;;;23.80;37.30;96428.50;5070087;28;20678;-59
2021/06/04 10:19:43;;;;;;;1999.90;999.90;;;;;;;23.69;37.89;96431.00;5069837;28;20578;-60
2021/06/04 10:22:18;;;;;;;1999.90;999.90;;;;;;;23.41;38.77;96425.91;5069764;28;20196;-60
2021/06/04 10:24:48;;;;;;;1999.90;999.90;;;;;;;23.50;39.22;96434.47;5069973;28;20236;-60
2021/06/04 10:27:20;;;;;;;1999.90;999.90;;;;;;;23.76;38.78;96438.31;5070050;28;20228;-60
2021/06/04 10:30:02;;;;;;;1999.90;999.90;;;;;;;23.82;37.67;96429.66;5070086;28;20255;-60
2021/06/04 10:32:34;;;;;;;1999.90;999.90;;;;;;;24.10;37.38;96428.59;5069845;28;20196;-60
2021/06/04 10:35:15;;;;;;;1999.90;999.90;;;;;;;24.46;36.38;96432.56;5069818;28;20227;-60
2021/06/04 10:37:49;;;;;;;1999.90;999.90;;;;;;;24.74;37.02;96420.38;5069596;28;20692;-59
2021/06/04 10:40:21;;;;;;;1999.90;999.90;;;;;;;25.27;36.78;96417.56;5069702;28;20208;-60
2021/06/04 10:43:14;;;;;;;1999.90;999.90;;;;;;;25.21;35.63;96427.00;5069656;28;20192;-61
2021/06/04 10:45:48;;;;;;;1999.90;999.90;;;;;;;24.78;37.92;96423.06;5069714;28;20283;-61
2021/06/04 10:48:30;;;;;;;1999.90;999.90;;;;;;;24.91;39.06;96426.31;5069511;28;20218;-61
2021/06/04 10:51:07;;;;;;;1999.90;999.90;;;;;;;25.36;38.27;96415.34;5072468;28;20581;-58
2021/06/04 10:53:44;;;;;;;1999.90;999.90;;;;;;;25.56;35.77;96422.03;5073286;28;20207;-61
2021/06/04 10:56:15;;;;;;;1999.90;999.90;;;;;;;25.03;35.64;96410.09;5073355;28;20192;-60
2021/06/04 10:58:49;;;;;;;1999.90;999.90;;;;;;;25.45;36.88;96420.41;5073164;28;20214;-60
2021/06/04 11:01:25;;;;;;;1999.90;999.90;;;;;;;25.32;35.75;96411.91;5073357;28;20695;-60
2021/06/04 11:03:57;;;;;;;1999.90;999.90;;;;;;;25.12;37.83;96408.66;5073109;28;20197;-61
2021/06/04 11:06:31;;;;;;;1999.90;999.90;;;;;;;24.99;36.63;96404.75;5073429;28;20232;-60
2021/06/04 11:09:11;;;;;;;1999.90;999.90;;;;;;;24.64;36.77;96412.28;5073094;28;20206;-61